sensor_id;sensor_type;location;lat;lon;timestamp;P1;durP1;ratioP1;P2;durP2;ratioP2
33858;SDS011;20156;47.486;12.074;2023-03-01T00:01:12;26.60;;;20.60;;
33858;SDS011;20156;47.486;12.074;2023-03-01T00:03:39;30.33;;;21.17;;
33858;SDS011;20156;47.486;12.074;2023-03-01T00:06:05;30.27;;;21.00;;
33858;SDS011;20156;47.486;12.074;2023-03-01T00:08:32;32.37;;;21.87;;
33858;SDS011;20156;47.486;12.074;2023-03-01T00:13:34;29.97;;;21.77;;
33858;SDS011;20156;47.486;12.074;2023-03-01T00:16:08;31.57;;;21.70;;
33858;SDS011;20156;47.486;12.074;2023-03-01T00:18:36;29.30;;;21.90;;
33858;SDS011;20156;47.486;12.074;2023-03-01T00:21:01;29.77;;;20.63;;
33858;SDS011;20156;47.486;12.074;2023-03-01T00:23:27;29.87;;;21.80;;
33858;SDS011;20156;47.486;12.074;2023-03-01T00:25:53;30.17;;;21.10;;
33858;SDS011;20156;47.486;12.074;2023-03-01T00:28:19;28.63;;;21.57;;
33858;SDS011;20156;47.486;12.074;2023-03-01T00:30:45;27.07;;;21.80;;
33858;SDS011;20156;47.486;12.074;2023-03-01T00:33:11;29.17;;;22.13;;
33858;SDS011;20156;47.486;12.074;2023-03-01T00:35:36;29.13;;;21.17;;
33858;SDS011;20156;47.486;12.074;2023-03-01T00:38:02;31.90;;;22.50;;
33858;SDS011;20156;47.486;12.074;2023-03-01T00:40:29;31.77;;;21.30;;
33858;SDS011;20156;47.486;12.074;2023-03-01T00:42:55;29.50;;;21.10;;
33858;SDS011;20156;47.486;12.074;2023-03-01T00:45:21;28.80;;;20.50;;
33858;SDS011;20156;47.486;12.074;2023-03-01T00:47:47;28.97;;;21.27;;
33858;SDS011;20156;47.486;12.074;2023-03-01T00:50:14;28.80;;;21.13;;
33858;SDS011;20156;47.486;12.074;2023-03-01T00:52:39;26.87;;;20.20;;
33858;SDS011;20156;47.486;12.074;2023-03-01T00:55:05;28.17;;;21.23;;
33858;SDS011;20156;47.486;12.074;2023-03-01T00:57:31;30.67;;;22.03;;
33858;SDS011;20156;47.486;12.074;2023-03-01T00:59:57;28.30;;;21.70;;
33858;SDS011;20156;47.486;12.074;2023-03-01T01:02:22;28.03;;;20.17;;
33858;SDS011;20156;47.486;12.074;2023-03-01T01:04:48;29.23;;;21.80;;
33858;SDS011;20156;47.486;12.074;2023-03-01T01:07:14;28.40;;;21.33;;
33858;SDS011;20156;47.486;12.074;2023-03-01T01:09:40;29.40;;;21.13;;
33858;SDS011;20156;47.486;12.074;2023-03-01T01:12:06;31.70;;;22.87;;
33858;SDS011;20156;47.486;12.074;2023-03-01T01:14:31;30.17;;;22.43;;
33858;SDS011;20156;47.486;12.074;2023-03-01T01:16:57;30.37;;;21.47;;
33858;SDS011;20156;47.486;12.074;2023-03-01T01:19:23;29.63;;;21.47;;
33858;SDS011;20156;47.486;12.074;2023-03-01T01:21:49;29.83;;;21.17;;
33858;SDS011;20156;47.486;12.074;2023-03-01T01:24:15;34.03;;;22.13;;
33858;SDS011;20156;47.486;12.074;2023-03-01T01:26:42;30.07;;;22.13;;
33858;SDS011;20156;47.486;12.074;2023-03-01T01:29:08;30.07;;;22.00;;
33858;SDS011;20156;47.486;12.074;2023-03-01T01:31:34;32.50;;;23.30;;
33858;SDS011;20156;47.486;12.074;2023-03-01T01:34:03;31.23;;;23.73;;
33858;SDS011;20156;47.486;12.074;2023-03-01T01:36:30;31.97;;;22.70;;
33858;SDS011;20156;47.486;12.074;2023-03-01T01:38:55;30.67;;;22.80;;
33858;SDS011;20156;47.486;12.074;2023-03-01T01:41:22;32.60;;;22.10;;
33858;SDS011;20156;47.486;12.074;2023-03-01T01:44:08;30.87;;;22.63;;
33858;SDS011;20156;47.486;12.074;2023-03-01T01:46:55;30.30;;;22.27;;
33858;SDS011;20156;47.486;12.074;2023-03-01T01:49:47;32.40;;;23.00;;
33858;SDS011;20156;47.486;12.074;2023-03-01T01:52:16;30.97;;;21.87;;
33858;SDS011;20156;47.486;12.074;2023-03-01T01:57:35;31.90;;;23.73;;
33858;SDS011;20156;47.486;12.074;2023-03-01T02:00:20;34.53;;;23.97;;
33858;SDS011;20156;47.486;12.074;2023-03-01T02:02:47;32.47;;;23.60;;
33858;SDS011;20156;47.486;12.074;2023-03-01T02:08:10;31.87;;;23.13;;
33858;SDS011;20156;47.486;12.074;2023-03-01T02:10:37;31.60;;;24.03;;
33858;SDS011;20156;47.486;12.074;2023-03-01T02:13:03;32.63;;;24.07;;
33858;SDS011;20156;47.486;12.074;2023-03-01T02:15:36;33.20;;;23.60;;
33858;SDS011;20156;47.486;12.074;2023-03-01T02:18:03;34.13;;;24.33;;
33858;SDS011;20156;47.486;12.074;2023-03-01T02:23:22;33.90;;;24.63;;
33858;SDS011;20156;47.486;12.074;2023-03-01T02:25:52;36.30;;;25.77;;
33858;SDS011;20156;47.486;12.074;2023-03-01T02:28:26;37.73;;;24.50;;
33858;SDS011;20156;47.486;12.074;2023-03-01T02:31:05;30.90;;;22.33;;
33858;SDS011;20156;47.486;12.074;2023-03-01T02:33:51;30.37;;;22.77;;
33858;SDS011;20156;47.486;12.074;2023-03-01T02:36:20;36.53;;;24.87;;
33858;SDS011;20156;47.486;12.074;2023-03-01T02:38:49;30.63;;;23.47;;
33858;SDS011;20156;47.486;12.074;2023-03-01T02:41:17;34.87;;;23.53;;
33858;SDS011;20156;47.486;12.074;2023-03-01T02:43:45;32.27;;;23.67;;
33858;SDS011;20156;47.486;12.074;2023-03-01T02:46:15;33.73;;;23.73;;
33858;SDS011;20156;47.486;12.074;2023-03-01T02:48:45;31.47;;;23.47;;
33858;SDS011;20156;47.486;12.074;2023-03-01T02:56:21;36.23;;;25.57;;
33858;SDS011;20156;47.486;12.074;2023-03-01T02:58:46;35.13;;;24.47;;
33858;SDS011;20156;47.486;12.074;2023-03-01T03:01:16;33.30;;;24.23;;
33858;SDS011;20156;47.486;12.074;2023-03-01T03:03:42;33.77;;;24.57;;
33858;SDS011;20156;47.486;12.074;2023-03-01T03:06:08;36.13;;;25.30;;
33858;SDS011;20156;47.486;12.074;2023-03-01T03:08:34;33.87;;;24.87;;
33858;SDS011;20156;47.486;12.074;2023-03-01T03:10:59;36.20;;;24.97;;
33858;SDS011;20156;47.486;12.074;2023-03-01T03:13:25;33.57;;;24.07;;
33858;SDS011;20156;47.486;12.074;2023-03-01T03:15:53;33.83;;;24.37;;
33858;SDS011;20156;47.486;12.074;2023-03-01T03:18:20;35.33;;;24.90;;
33858;SDS011;20156;47.486;12.074;2023-03-01T03:20:46;33.17;;;22.97;;
33858;SDS011;20156;47.486;12.074;2023-03-01T03:23:11;34.57;;;24.50;;
33858;SDS011;20156;47.486;12.074;2023-03-01T03:25:37;32.63;;;23.50;;
33858;SDS011;20156;47.486;12.074;2023-03-01T03:28:04;32.37;;;23.93;;
33858;SDS011;20156;47.486;12.074;2023-03-01T03:30:34;34.53;;;24.70;;
33858;SDS011;20156;47.486;12.074;2023-03-01T03:33:04;34.63;;;25.50;;
33858;SDS011;20156;47.486;12.074;2023-03-01T03:35:34;36.27;;;24.90;;
33858;SDS011;20156;47.486;12.074;2023-03-01T03:38:06;35.30;;;24.33;;
33858;SDS011;20156;47.486;12.074;2023-03-01T03:40:41;35.20;;;25.70;;
33858;SDS011;20156;47.486;12.074;2023-03-01T03:43:09;34.33;;;24.80;;
33858;SDS011;20156;47.486;12.074;2023-03-01T03:45:37;33.00;;;23.50;;
33858;SDS011;20156;47.486;12.074;2023-03-01T03:48:04;35.30;;;25.07;;
33858;SDS011;20156;47.486;12.074;2023-03-01T03:50:31;34.83;;;24.70;;
33858;SDS011;20156;47.486;12.074;2023-03-01T03:52:56;34.83;;;24.33;;
33858;SDS011;20156;47.486;12.074;2023-03-01T03:55:24;36.50;;;24.90;;
33858;SDS011;20156;47.486;12.074;2023-03-01T03:57:54;33.47;;;23.23;;
33858;SDS011;20156;47.486;12.074;2023-03-01T04:00:23;35.63;;;26.07;;
33858;SDS011;20156;47.486;12.074;2023-03-01T04:02:49;32.17;;;22.90;;
33858;SDS011;20156;47.486;12.074;2023-03-01T04:05:16;39.03;;;24.43;;
33858;SDS011;20156;47.486;12.074;2023-03-01T04:07:43;37.70;;;25.73;;
33858;SDS011;20156;47.486;12.074;2023-03-01T04:10:10;39.70;;;26.13;;
33858;SDS011;20156;47.486;12.074;2023-03-01T04:12:39;34.10;;;23.97;;
33858;SDS011;20156;47.486;12.074;2023-03-01T04:15:05;39.27;;;27.50;;
33858;SDS011;20156;47.486;12.074;2023-03-01T04:17:45;35.50;;;26.23;;
33858;SDS011;20156;47.486;12.074;2023-03-01T04:20:15;36.07;;;23.63;;
33858;SDS011;20156;47.486;12.074;2023-03-01T04:22:43;34.67;;;25.00;;
33858;SDS011;20156;47.486;12.074;2023-03-01T04:25:11;38.50;;;26.60;;
33858;SDS011;20156;47.486;12.074;2023-03-01T04:27:39;36.10;;;25.97;;
33858;SDS011;20156;47.486;12.074;2023-03-01T04:30:05;36.43;;;24.37;;
33858;SDS011;20156;47.486;12.074;2023-03-01T04:32:32;41.53;;;27.13;;
33858;SDS011;20156;47.486;12.074;2023-03-01T04:34:57;37.67;;;26.43;;
33858;SDS011;20156;47.486;12.074;2023-03-01T04:37:23;37.47;;;25.33;;
33858;SDS011;20156;47.486;12.074;2023-03-01T04:39:49;39.00;;;26.33;;
33858;SDS011;20156;47.486;12.074;2023-03-01T04:42:15;37.20;;;26.73;;
33858;SDS011;20156;47.486;12.074;2023-03-01T04:44:41;39.20;;;26.63;;
33858;SDS011;20156;47.486;12.074;2023-03-01T04:47:07;41.93;;;28.20;;
33858;SDS011;20156;47.486;12.074;2023-03-01T04:49:33;40.43;;;26.80;;
33858;SDS011;20156;47.486;12.074;2023-03-01T04:51:58;42.00;;;26.53;;
33858;SDS011;20156;47.486;12.074;2023-03-01T04:54:27;38.07;;;25.77;;
33858;SDS011;20156;47.486;12.074;2023-03-01T04:56:57;38.53;;;26.23;;
33858;SDS011;20156;47.486;12.074;2023-03-01T04:59:23;40.03;;;27.43;;
33858;SDS011;20156;47.486;12.074;2023-03-01T05:01:49;39.07;;;26.97;;
33858;SDS011;20156;47.486;12.074;2023-03-01T05:04:15;37.57;;;27.00;;
33858;SDS011;20156;47.486;12.074;2023-03-01T05:06:40;37.87;;;27.10;;
33858;SDS011;20156;47.486;12.074;2023-03-01T05:09:06;39.70;;;27.50;;
33858;SDS011;20156;47.486;12.074;2023-03-01T05:11:31;40.97;;;28.23;;
33858;SDS011;20156;47.486;12.074;2023-03-01T05:14:01;43.20;;;28.20;;
33858;SDS011;20156;47.486;12.074;2023-03-01T05:16:27;43.70;;;28.50;;
33858;SDS011;20156;47.486;12.074;2023-03-01T05:18:52;44.27;;;31.00;;
33858;SDS011;20156;47.486;12.074;2023-03-01T05:21:17;44.43;;;30.03;;
33858;SDS011;20156;47.486;12.074;2023-03-01T05:23:43;48.63;;;30.80;;
33858;SDS011;20156;47.486;12.074;2023-03-01T05:26:10;46.33;;;30.37;;
33858;SDS011;20156;47.486;12.074;2023-03-01T05:28:37;45.63;;;29.50;;
33858;SDS011;20156;47.486;12.074;2023-03-01T05:31:03;44.13;;;29.93;;
33858;SDS011;20156;47.486;12.074;2023-03-01T05:33:34;45.00;;;28.93;;
33858;SDS011;20156;47.486;12.074;2023-03-01T05:36:04;48.80;;;30.47;;
33858;SDS011;20156;47.486;12.074;2023-03-01T05:38:32;48.47;;;30.50;;
33858;SDS011;20156;47.486;12.074;2023-03-01T05:40:58;47.97;;;30.30;;
33858;SDS011;20156;47.486;12.074;2023-03-01T05:43:23;46.40;;;29.13;;
33858;SDS011;20156;47.486;12.074;2023-03-01T05:45:48;46.17;;;29.63;;
33858;SDS011;20156;47.486;12.074;2023-03-01T05:48:14;42.23;;;28.50;;
33858;SDS011;20156;47.486;12.074;2023-03-01T05:50:41;45.03;;;30.33;;
33858;SDS011;20156;47.486;12.074;2023-03-01T05:55:46;44.43;;;29.83;;
33858;SDS011;20156;47.486;12.074;2023-03-01T05:58:16;41.13;;;29.60;;
33858;SDS011;20156;47.486;12.074;2023-03-01T06:00:44;45.63;;;30.33;;
33858;SDS011;20156;47.486;12.074;2023-03-01T06:03:11;44.73;;;30.27;;
33858;SDS011;20156;47.486;12.074;2023-03-01T06:05:38;43.07;;;30.87;;
33858;SDS011;20156;47.486;12.074;2023-03-01T06:08:04;44.03;;;29.43;;
33858;SDS011;20156;47.486;12.074;2023-03-01T06:10:30;45.67;;;31.13;;
33858;SDS011;20156;47.486;12.074;2023-03-01T06:12:56;45.40;;;30.37;;
33858;SDS011;20156;47.486;12.074;2023-03-01T06:15:21;46.03;;;29.80;;
33858;SDS011;20156;47.486;12.074;2023-03-01T06:17:47;43.87;;;29.50;;
33858;SDS011;20156;47.486;12.074;2023-03-01T06:20:18;44.37;;;30.27;;
33858;SDS011;20156;47.486;12.074;2023-03-01T06:22:44;45.03;;;30.13;;
33858;SDS011;20156;47.486;12.074;2023-03-01T06:25:11;43.13;;;29.30;;
33858;SDS011;20156;47.486;12.074;2023-03-01T06:27:38;44.83;;;29.73;;
33858;SDS011;20156;47.486;12.074;2023-03-01T06:30:05;45.03;;;29.13;;
33858;SDS011;20156;47.486;12.074;2023-03-01T06:32:32;40.13;;;27.17;;
33858;SDS011;20156;47.486;12.074;2023-03-01T06:34:57;41.23;;;28.13;;
33858;SDS011;20156;47.486;12.074;2023-03-01T06:37:23;44.60;;;29.40;;
33858;SDS011;20156;47.486;12.074;2023-03-01T06:39:49;44.40;;;29.97;;
33858;SDS011;20156;47.486;12.074;2023-03-01T06:42:15;50.30;;;30.80;;
33858;SDS011;20156;47.486;12.074;2023-03-01T06:44:40;47.30;;;31.67;;
33858;SDS011;20156;47.486;12.074;2023-03-01T06:47:06;44.40;;;30.03;;
33858;SDS011;20156;47.486;12.074;2023-03-01T06:49:31;42.57;;;29.13;;
33858;SDS011;20156;47.486;12.074;2023-03-01T06:51:57;44.63;;;29.63;;
33858;SDS011;20156;47.486;12.074;2023-03-01T06:54:22;42.67;;;28.40;;
33858;SDS011;20156;47.486;12.074;2023-03-01T06:56:48;45.07;;;30.07;;
33858;SDS011;20156;47.486;12.074;2023-03-01T06:59:15;43.47;;;29.90;;
33858;SDS011;20156;47.486;12.074;2023-03-01T07:01:41;46.93;;;31.90;;
33858;SDS011;20156;47.486;12.074;2023-03-01T07:04:06;55.57;;;36.27;;
33858;SDS011;20156;47.486;12.074;2023-03-01T07:06:32;50.73;;;33.93;;
33858;SDS011;20156;47.486;12.074;2023-03-01T07:08:57;47.43;;;31.97;;
33858;SDS011;20156;47.486;12.074;2023-03-01T07:11:23;45.23;;;29.77;;
33858;SDS011;20156;47.486;12.074;2023-03-01T07:13:48;43.97;;;30.27;;
33858;SDS011;20156;47.486;12.074;2023-03-01T07:16:13;45.83;;;32.17;;
33858;SDS011;20156;47.486;12.074;2023-03-01T07:18:39;46.33;;;30.93;;
33858;SDS011;20156;47.486;12.074;2023-03-01T07:21:06;44.50;;;30.90;;
33858;SDS011;20156;47.486;12.074;2023-03-01T07:23:33;46.63;;;30.37;;
33858;SDS011;20156;47.486;12.074;2023-03-01T07:25:59;50.70;;;31.80;;
33858;SDS011;20156;47.486;12.074;2023-03-01T07:28:25;41.53;;;30.60;;
33858;SDS011;20156;47.486;12.074;2023-03-01T07:30:51;43.63;;;29.67;;
33858;SDS011;20156;47.486;12.074;2023-03-01T07:33:17;43.27;;;29.60;;
33858;SDS011;20156;47.486;12.074;2023-03-01T07:35:43;45.53;;;30.57;;
33858;SDS011;20156;47.486;12.074;2023-03-01T07:38:08;46.93;;;30.60;;
33858;SDS011;20156;47.486;12.074;2023-03-01T07:40:34;45.93;;;27.53;;
33858;SDS011;20156;47.486;12.074;2023-03-01T07:42:59;44.67;;;28.93;;
33858;SDS011;20156;47.486;12.074;2023-03-01T07:45:26;40.53;;;27.30;;
33858;SDS011;20156;47.486;12.074;2023-03-01T07:47:52;48.80;;;30.43;;
33858;SDS011;20156;47.486;12.074;2023-03-01T07:50:18;42.57;;;31.50;;
33858;SDS011;20156;47.486;12.074;2023-03-01T07:52:47;45.07;;;31.30;;
33858;SDS011;20156;47.486;12.074;2023-03-01T07:55:13;45.17;;;30.73;;
33858;SDS011;20156;47.486;12.074;2023-03-01T07:57:40;44.67;;;30.73;;
33858;SDS011;20156;47.486;12.074;2023-03-01T08:00:05;49.13;;;30.37;;
33858;SDS011;20156;47.486;12.074;2023-03-01T08:02:32;44.47;;;32.23;;
33858;SDS011;20156;47.486;12.074;2023-03-01T08:04:57;46.13;;;30.57;;
33858;SDS011;20156;47.486;12.074;2023-03-01T08:07:23;45.53;;;30.53;;
33858;SDS011;20156;47.486;12.074;2023-03-01T08:09:48;43.57;;;29.70;;
33858;SDS011;20156;47.486;12.074;2023-03-01T08:12:14;39.47;;;29.43;;
33858;SDS011;20156;47.486;12.074;2023-03-01T08:14:41;37.63;;;28.33;;
33858;SDS011;20156;47.486;12.074;2023-03-01T08:17:06;39.37;;;28.47;;
33858;SDS011;20156;47.486;12.074;2023-03-01T08:19:32;40.90;;;29.40;;
33858;SDS011;20156;47.486;12.074;2023-03-01T08:21:58;48.20;;;33.47;;
33858;SDS011;20156;47.486;12.074;2023-03-01T08:24:25;43.93;;;33.13;;
33858;SDS011;20156;47.486;12.074;2023-03-01T08:26:50;43.40;;;33.67;;
33858;SDS011;20156;47.486;12.074;2023-03-01T08:29:16;44.67;;;29.23;;
33858;SDS011;20156;47.486;12.074;2023-03-01T08:31:41;46.23;;;30.40;;
33858;SDS011;20156;47.486;12.074;2023-03-01T08:34:08;41.73;;;29.30;;
33858;SDS011;20156;47.486;12.074;2023-03-01T08:36:36;44.57;;;31.30;;
33858;SDS011;20156;47.486;12.074;2023-03-01T08:39:05;41.93;;;30.10;;
33858;SDS011;20156;47.486;12.074;2023-03-01T08:41:31;40.43;;;28.97;;
33858;SDS011;20156;47.486;12.074;2023-03-01T08:43:57;43.00;;;29.47;;
33858;SDS011;20156;47.486;12.074;2023-03-01T08:46:29;42.30;;;28.87;;
33858;SDS011;20156;47.486;12.074;2023-03-01T08:48:56;39.83;;;29.90;;
33858;SDS011;20156;47.486;12.074;2023-03-01T08:51:23;38.03;;;27.97;;
33858;SDS011;20156;47.486;12.074;2023-03-01T08:53:49;41.30;;;28.93;;
33858;SDS011;20156;47.486;12.074;2023-03-01T08:56:15;39.93;;;29.23;;
33858;SDS011;20156;47.486;12.074;2023-03-01T08:58:43;41.00;;;29.03;;
33858;SDS011;20156;47.486;12.074;2023-03-01T09:01:10;39.13;;;27.83;;
33858;SDS011;20156;47.486;12.074;2023-03-01T09:03:37;39.53;;;28.07;;
33858;SDS011;20156;47.486;12.074;2023-03-01T09:06:04;41.67;;;29.67;;
33858;SDS011;20156;47.486;12.074;2023-03-01T09:08:30;41.33;;;28.63;;
33858;SDS011;20156;47.486;12.074;2023-03-01T09:10:56;42.07;;;29.43;;
33858;SDS011;20156;47.486;12.074;2023-03-01T09:13:21;49.20;;;37.37;;
33858;SDS011;20156;47.486;12.074;2023-03-01T09:15:49;36.63;;;26.93;;
33858;SDS011;20156;47.486;12.074;2023-03-01T09:18:15;37.20;;;27.97;;
33858;SDS011;20156;47.486;12.074;2023-03-01T09:20:40;35.27;;;25.30;;
33858;SDS011;20156;47.486;12.074;2023-03-01T09:23:06;37.50;;;27.17;;
33858;SDS011;20156;47.486;12.074;2023-03-01T09:25:33;38.53;;;27.53;;
33858;SDS011;20156;47.486;12.074;2023-03-01T09:27:59;34.60;;;22.73;;
33858;SDS011;20156;47.486;12.074;2023-03-01T09:30:24;32.10;;;23.10;;
33858;SDS011;20156;47.486;12.074;2023-03-01T09:32:50;33.10;;;24.57;;
33858;SDS011;20156;47.486;12.074;2023-03-01T09:35:15;30.63;;;22.00;;
33858;SDS011;20156;47.486;12.074;2023-03-01T09:37:41;30.33;;;22.97;;
33858;SDS011;20156;47.486;12.074;2023-03-01T09:40:14;31.83;;;26.10;;
33858;SDS011;20156;47.486;12.074;2023-03-01T09:43:15;27.97;;;20.67;;
33858;SDS011;20156;47.486;12.074;2023-03-01T09:45:54;32.37;;;22.53;;
33858;SDS011;20156;47.486;12.074;2023-03-01T09:48:26;28.97;;;21.27;;
33858;SDS011;20156;47.486;12.074;2023-03-01T09:50:57;23.97;;;18.63;;
33858;SDS011;20156;47.486;12.074;2023-03-01T09:53:27;25.23;;;19.60;;
33858;SDS011;20156;47.486;12.074;2023-03-01T09:56:05;23.17;;;17.50;;
33858;SDS011;20156;47.486;12.074;2023-03-01T10:09:36;24.57;;;18.23;;
33858;SDS011;20156;47.486;12.074;2023-03-01T10:12:06;26.17;;;18.53;;
33858;SDS011;20156;47.486;12.074;2023-03-01T10:14:39;24.50;;;17.77;;
33858;SDS011;20156;47.486;12.074;2023-03-01T10:17:30;26.50;;;19.07;;
33858;SDS011;20156;47.486;12.074;2023-03-01T10:20:17;25.73;;;18.83;;
33858;SDS011;20156;47.486;12.074;2023-03-01T10:22:43;24.60;;;17.53;;
33858;SDS011;20156;47.486;12.074;2023-03-01T10:25:15;26.03;;;17.30;;
33858;SDS011;20156;47.486;12.074;2023-03-01T10:27:53;24.73;;;17.80;;
33858;SDS011;20156;47.486;12.074;2023-03-01T10:33:08;22.77;;;16.57;;
33858;SDS011;20156;47.486;12.074;2023-03-01T10:35:42;22.27;;;17.33;;
33858;SDS011;20156;47.486;12.074;2023-03-01T10:38:11;22.77;;;15.87;;
33858;SDS011;20156;47.486;12.074;2023-03-01T10:43:30;21.07;;;15.80;;
33858;SDS011;20156;47.486;12.074;2023-03-01T10:46:40;22.20;;;16.23;;
33858;SDS011;20156;47.486;12.074;2023-03-01T10:51:46;21.73;;;15.97;;
33858;SDS011;20156;47.486;12.074;2023-03-01T10:56:49;21.07;;;15.70;;
33858;SDS011;20156;47.486;12.074;2023-03-01T10:59:28;22.50;;;16.70;;
33858;SDS011;20156;47.486;12.074;2023-03-01T11:05:13;20.93;;;15.93;;
33858;SDS011;20156;47.486;12.074;2023-03-01T11:10:33;22.60;;;17.00;;
33858;SDS011;20156;47.486;12.074;2023-03-01T11:13:18;18.13;;;14.67;;
33858;SDS011;20156;47.486;12.074;2023-03-01T11:18:31;21.73;;;15.60;;
33858;SDS011;20156;47.486;12.074;2023-03-01T11:20:58;19.17;;;15.93;;
33858;SDS011;20156;47.486;12.074;2023-03-01T11:23:25;18.50;;;14.53;;
33858;SDS011;20156;47.486;12.074;2023-03-01T11:26:05;18.73;;;15.20;;
33858;SDS011;20156;47.486;12.074;2023-03-01T11:28:33;17.87;;;14.73;;
33858;SDS011;20156;47.486;12.074;2023-03-01T11:31:06;17.77;;;14.50;;
33858;SDS011;20156;47.486;12.074;2023-03-01T11:34:06;19.90;;;14.80;;
33858;SDS011;20156;47.486;12.074;2023-03-01T11:36:44;18.10;;;14.70;;
33858;SDS011;20156;47.486;12.074;2023-03-01T11:39:22;15.67;;;13.57;;
33858;SDS011;20156;47.486;12.074;2023-03-01T11:41:59;17.30;;;13.73;;
33858;SDS011;20156;47.486;12.074;2023-03-01T11:44:30;17.03;;;14.13;;
33858;SDS011;20156;47.486;12.074;2023-03-01T11:58:17;22.10;;;15.70;;
33858;SDS011;20156;47.486;12.074;2023-03-01T12:06:45;19.67;;;16.10;;
33858;SDS011;20156;47.486;12.074;2023-03-01T12:20:36;22.67;;;17.87;;
33858;SDS011;20156;47.486;12.074;2023-03-01T12:29:33;24.97;;;17.57;;
33858;SDS011;20156;47.486;12.074;2023-03-01T12:40:18;23.63;;;18.33;;
33858;SDS011;20156;47.486;12.074;2023-03-01T12:46:14;25.60;;;18.40;;
33858;SDS011;20156;47.486;12.074;2023-03-01T12:51:34;23.77;;;17.83;;
33858;SDS011;20156;47.486;12.074;2023-03-01T12:54:05;23.07;;;17.97;;
33858;SDS011;20156;47.486;12.074;2023-03-01T12:56:39;24.77;;;18.03;;
33858;SDS011;20156;47.486;12.074;2023-03-01T13:01:59;24.67;;;17.80;;
33858;SDS011;20156;47.486;12.074;2023-03-01T13:17:52;23.70;;;17.60;;
33858;SDS011;20156;47.486;12.074;2023-03-01T13:20:21;22.57;;;17.93;;
33858;SDS011;20156;47.486;12.074;2023-03-01T13:23:01;22.60;;;17.47;;
33858;SDS011;20156;47.486;12.074;2023-03-01T13:25:26;20.10;;;16.43;;
33858;SDS011;20156;47.486;12.074;2023-03-01T13:27:52;23.43;;;18.10;;
33858;SDS011;20156;47.486;12.074;2023-03-01T13:31:07;21.10;;;17.27;;
33858;SDS011;20156;47.486;12.074;2023-03-01T13:37:08;19.97;;;15.87;;
33858;SDS011;20156;47.486;12.074;2023-03-01T13:39:02;23.53;;;17.70;;
33858;SDS011;20156;47.486;12.074;2023-03-01T13:46:50;19.97;;;17.03;;
33858;SDS011;20156;47.486;12.074;2023-03-01T13:49:58;24.47;;;18.73;;
33858;SDS011;20156;47.486;12.074;2023-03-01T13:55:00;20.97;;;16.63;;
33858;SDS011;20156;47.486;12.074;2023-03-01T13:57:36;24.73;;;18.47;;
33858;SDS011;20156;47.486;12.074;2023-03-01T14:00:04;23.37;;;17.53;;
33858;SDS011;20156;47.486;12.074;2023-03-01T14:02:31;23.20;;;17.43;;
33858;SDS011;20156;47.486;12.074;2023-03-01T14:04:59;23.07;;;17.13;;
33858;SDS011;20156;47.486;12.074;2023-03-01T14:07:26;22.73;;;18.90;;
33858;SDS011;20156;47.486;12.074;2023-03-01T14:09:59;23.33;;;19.30;;
33858;SDS011;20156;47.486;12.074;2023-03-01T14:15:01;22.77;;;17.67;;
33858;SDS011;20156;47.486;12.074;2023-03-01T14:17:51;23.47;;;18.43;;
33858;SDS011;20156;47.486;12.074;2023-03-01T14:20:30;25.67;;;18.50;;
33858;SDS011;20156;47.486;12.074;2023-03-01T14:23:02;23.00;;;17.80;;
33858;SDS011;20156;47.486;12.074;2023-03-01T14:25:37;24.70;;;18.67;;
33858;SDS011;20156;47.486;12.074;2023-03-01T14:28:11;22.47;;;17.87;;
33858;SDS011;20156;47.486;12.074;2023-03-01T14:30:42;26.37;;;18.83;;
33858;SDS011;20156;47.486;12.074;2023-03-01T14:35:51;22.50;;;18.10;;
33858;SDS011;20156;47.486;12.074;2023-03-01T14:38:37;25.23;;;18.70;;
33858;SDS011;20156;47.486;12.074;2023-03-01T14:41:13;26.07;;;18.03;;
33858;SDS011;20156;47.486;12.074;2023-03-01T14:43:51;21.97;;;18.53;;
33858;SDS011;20156;47.486;12.074;2023-03-01T14:46:43;25.50;;;18.87;;
33858;SDS011;20156;47.486;12.074;2023-03-01T14:49:12;23.60;;;17.33;;
33858;SDS011;20156;47.486;12.074;2023-03-01T14:51:42;23.87;;;17.27;;
33858;SDS011;20156;47.486;12.074;2023-03-01T14:56:51;21.13;;;18.23;;
33858;SDS011;20156;47.486;12.074;2023-03-01T14:59:20;22.20;;;16.93;;
33858;SDS011;20156;47.486;12.074;2023-03-01T15:01:48;24.47;;;18.67;;
33858;SDS011;20156;47.486;12.074;2023-03-01T15:04:14;25.20;;;18.53;;
33858;SDS011;20156;47.486;12.074;2023-03-01T15:06:40;23.60;;;18.03;;
33858;SDS011;20156;47.486;12.074;2023-03-01T15:09:06;26.20;;;19.67;;
33858;SDS011;20156;47.486;12.074;2023-03-01T15:11:37;25.47;;;19.00;;
33858;SDS011;20156;47.486;12.074;2023-03-01T15:14:24;28.60;;;20.00;;
33858;SDS011;20156;47.486;12.074;2023-03-01T15:17:03;24.60;;;19.37;;
33858;SDS011;20156;47.486;12.074;2023-03-01T15:19:29;27.37;;;19.37;;
33858;SDS011;20156;47.486;12.074;2023-03-01T15:21:54;27.03;;;19.80;;
33858;SDS011;20156;47.486;12.074;2023-03-01T15:24:23;27.17;;;18.73;;
33858;SDS011;20156;47.486;12.074;2023-03-01T15:26:51;26.20;;;20.57;;
33858;SDS011;20156;47.486;12.074;2023-03-01T15:29:21;25.07;;;19.27;;
33858;SDS011;20156;47.486;12.074;2023-03-01T15:31:55;26.17;;;18.80;;
33858;SDS011;20156;47.486;12.074;2023-03-01T15:34:25;25.63;;;20.60;;
33858;SDS011;20156;47.486;12.074;2023-03-01T15:37:05;29.13;;;20.93;;
33858;SDS011;20156;47.486;12.074;2023-03-01T15:39:52;26.93;;;20.27;;
33858;SDS011;20156;47.486;12.074;2023-03-01T15:45:07;31.70;;;20.83;;
33858;SDS011;20156;47.486;12.074;2023-03-01T15:47:53;31.47;;;21.40;;
33858;SDS011;20156;47.486;12.074;2023-03-01T15:52:53;27.93;;;20.87;;
33858;SDS011;20156;47.486;12.074;2023-03-01T15:55:21;34.33;;;22.97;;
33858;SDS011;20156;47.486;12.074;2023-03-01T15:57:49;30.10;;;22.77;;
33858;SDS011;20156;47.486;12.074;2023-03-01T16:00:15;29.17;;;21.63;;
33858;SDS011;20156;47.486;12.074;2023-03-01T16:02:42;34.17;;;25.13;;
33858;SDS011;20156;47.486;12.074;2023-03-01T16:05:12;32.63;;;23.67;;
33858;SDS011;20156;47.486;12.074;2023-03-01T16:07:43;28.43;;;21.73;;
33858;SDS011;20156;47.486;12.074;2023-03-01T16:10:09;30.13;;;21.53;;
33858;SDS011;20156;47.486;12.074;2023-03-01T16:12:34;27.77;;;20.37;;
33858;SDS011;20156;47.486;12.074;2023-03-01T16:15:00;28.57;;;22.00;;
33858;SDS011;20156;47.486;12.074;2023-03-01T16:17:26;32.77;;;22.73;;
33858;SDS011;20156;47.486;12.074;2023-03-01T16:19:51;31.33;;;24.13;;
33858;SDS011;20156;47.486;12.074;2023-03-01T16:22:17;26.60;;;20.07;;
33858;SDS011;20156;47.486;12.074;2023-03-01T16:24:42;28.73;;;20.63;;
33858;SDS011;20156;47.486;12.074;2023-03-01T16:27:08;26.23;;;21.87;;
33858;SDS011;20156;47.486;12.074;2023-03-01T16:29:34;31.27;;;22.60;;
33858;SDS011;20156;47.486;12.074;2023-03-01T16:32:00;27.07;;;21.17;;
33858;SDS011;20156;47.486;12.074;2023-03-01T16:34:26;30.97;;;22.27;;
33858;SDS011;20156;47.486;12.074;2023-03-01T16:36:52;29.00;;;20.97;;
33858;SDS011;20156;47.486;12.074;2023-03-01T16:39:18;30.93;;;22.07;;